Sergiu Nita

Recruteur - Petrolul
2 Juil 2028
Dimanche
Processus

Personnalité

Adaptabilité (5) Ambition (5) Controverse (4) Loyauté (8) Pression (16) Professionnalisme (5) Sportivité (9) Tempérament (19)

Profil

Style d'entraînement Démocratique
Diplôme National B
Détermination 11
Gestion des joueurs 7
Motivation 7
Discipline 11
Satisfaction professionnelle
100%
Fatigue
0%
Rôle Recruteur
Salaire 35.0K p/s
Contrat 14.03.2029

Performance

Comportement Bon
Efficacité de l'entraînement
23%
Développement des joueurs
15%
Prévention des blessures
45%
Mise en place tactique
30%

Événements récents

A participé à une réunion de recrutement maintenant
A recommandé une cible de transfert maintenant
A participé à une réunion de recrutement maintenant
A recommandé une cible de transfert maintenant
A participé à une réunion de recrutement 7j
A recommandé une cible de transfert 7j
A recommandé une cible de transfert 7j
A recommandé une cible de transfert 7j

Suivi en cours

130
Joueur Club Statut Capacité Confiance Observé Dernière observation Dernier vote
Emanuele Schimmenti Potenza Actif 118 / 106 40% 1 12.06.2028 -
Charlie Kelman Barnsley Actif 125 / 123 40% 1 12.06.2028 -
Ante Crnac Bristol Rovers Actif 128 / 121 40% 1 12.06.2028 -
Viktor Kun CFR Cluj Actif 95 / 103 76% 1 07.01.2028 Approuver
Brandon Hanlan Doncaster Rovers Actif 93 / 93 40% 1 14.06.2027 -
Narcis Ilaş Botosani Actif 114 / 116 72% 1 06.06.2027 Approuver
Emanuele Scipioni Monopoli Actif 99 / 114 40% 1 31.05.2027 -
Abu Kamara Portsmouth Actif 115 / 121 40% 1 31.05.2027 -
Malik Mothersille Stockport County Actif 114 / 123 40% 2 28.05.2027 -
Marco Tumminello Benevento Actif 107 / 112 40% 1 28.05.2027 -
Martin Sekulić Ural Actif 106 / 103 40% 1 27.05.2027 -
Erick Dolly Black Aces Actif 122 / 110 40% 1 27.05.2027 -
Mees Rijks Bristol Rovers Actif 122 / 116 40% 3 26.05.2027 -
Samuel Kalu Botev Plovdiv Actif 120 / 117 40% 3 24.05.2027 -
Kyle Wootton Stockport County Actif 117 / 122 40% 3 24.05.2027 -
Mattia Iori Lumezzane Actif 102 / 103 40% 1 24.05.2027 -
Elijah Adebayo Luton Town Actif 135 / 124 40% 1 23.05.2027 -
Christian Saydee Wigan Athletic Actif 111 / 121 40% 1 23.05.2027 -
Patrick Cutrone Monza Actif 142 / 128 40% 3 22.05.2027 -
Jérémy Le Douaron Palermo Actif 133 / 122 40% 1 21.05.2027 -
Ettore Gliozzi Mantova Actif 114 / 124 40% 3 19.05.2027 -
Don Bolsius Ascoli Actif 112 / 95 40% 2 19.05.2027 -
Simone Mazzocchi Cosenza Actif 125 / 103 40% 1 19.05.2027 -
Zach Ryan Ismaily Actif 98 / 107 40% 2 18.05.2027 -
Yannick Woudstra AFC Wimbledon Actif 107 / 103 40% 1 18.05.2027 -
Dale Taylor Blackpool Actif 101 / 124 40% 2 14.05.2027 -
Giuseppe Panico Foggia Actif 124 / 107 40% 1 14.05.2027 -
Rui Costa Port Vale Actif 114 / 115 40% 2 10.05.2027 -
Stiven Shpendi Empoli Actif 127 / 113 40% 2 10.05.2027 -
Luca Moro Padova Actif 123 / 121 40% 1 07.05.2027 -
Moussakoye Diallo Stade Malien Actif 104 / 110 40% 1 07.05.2027 -
Giuseppe Sibilli Juve Stabia Actif 123 / 123 40% 1 06.05.2027 -
Tyreece Campbell Charlton Athletic Actif 116 / 124 40% 3 04.05.2027 -
Sam Nombe Milton Keynes Dons Actif 119 / 101 40% 1 04.05.2027 -
Matty Stevens AFC Wimbledon Actif 102 / 113 40% 1 02.05.2027 -
Augustus Kargbo Blackburn Rovers Actif 104 / 101 40% 1 02.05.2027 -
Marco Da Graca Novara Actif 92 / 95 40% 1 28.04.2027 -
Simone Rabbi Ravenna Actif 119 / 120 40% 1 28.04.2027 -
Sam Bell Bristol City Actif 125 / 130 40% 1 27.04.2027 -
Ryan Graydon Salford City Actif 105 / 90 40% 2 25.04.2027 -
Tyler Roberts Mansfield Town Actif 93 / 92 40% 1 25.04.2027 -
David Okereke Cremonese Actif 118 / 112 40% 1 25.04.2027 -
Callum Lang Preston Actif 114 / 109 40% 1 24.04.2027 -
Matteo Rover Reggiana Actif 111 / 110 40% 1 24.04.2027 -
John Yeboah Venezia Actif 129 / 109 40% 1 24.04.2027 -
Oleksii Hutsuliak Polissia Actif 133 / 129 40% 1 23.04.2027 -
Anatole Abang USM Alger Actif 122 / 104 40% 1 20.04.2027 -
Aaron Collins Milton Keynes Dons Actif 126 / 107 40% 2 18.04.2027 -
Harrison Kudus WAFA Actif 102 / 108 40% 1 18.04.2027 -
Aidomo Emakhu Oxford United Actif 110 / 136 40% 1 16.04.2027 -
Lorent Tolaj Plymouth Argyle Actif 115 / 123 40% 1 16.04.2027 -
Josh Coburn Millwall Actif 113 / 126 40% 1 15.04.2027 -
Brayan Gil Baltika Actif 122 / 126 40% 1 14.04.2027 -
Aaron Drinan Swindon Town Actif 97 / 102 40% 1 10.04.2027 -
Oto John ES Mostaganem Actif 101 / 114 40% 1 10.04.2027 -
Rocco Vata Watford Actif 113 / 115 40% 1 09.04.2027 -
Richard Koné Queens Park Rangers Actif 129 / 137 40% 1 09.04.2027 -
Edoardo Soleri Bari Actif 127 / 121 40% 1 08.04.2027 -
Giacomo Zecca Torres Actif 115 / 103 40% 1 08.04.2027 -
Willem Geubbels Lecce Actif 127 / 141 40% 1 07.04.2027 -
Giorgi Kvernadze Frosinone Actif 124 / 121 40% 1 07.04.2027 -
Bosun Lawal Stoke City Actif 120 / 131 40% 1 01.02.2027 -
Alfie Gilchrist West Bromwich Albion Actif 127 / 132 40% 1 01.02.2027 -
Romelle Donovan Brentford Actif 107 / 141 40% 1 31.12.2026 -
Alexandru Cicâldău Universitatea Craiova Actif 117 / 128 40% 2 30.12.2026 -
Armstrong Oko-Flex Levski Actif 124 / 117 40% 2 30.12.2026 -
Giuseppe Pezzella Cremonese Actif 120 / 122 40% 1 30.12.2026 -
Bongani Zungu Ajax Cape Town Actif 119 / 126 40% 2 29.12.2026 -
Marko Grujić Levski Actif 125 / 131 40% 1 29.12.2026 -
Ştefan Bodişteanu Botosani Actif 104 / 105 40% 1 26.12.2026 -
Edu Expósito Espanyol Actif 137 / 141 40% 1 26.12.2026 -
José Bernal Ethnikos Achnas Actif 103 / 95 40% 1 24.12.2026 -
Will Hughes Bloemfontein Celtic Actif 137 / 120 40% 1 24.12.2026 -
Brooklyn Poggenpoel Maritzburg United Actif 114 / 99 40% 2 19.12.2026 -
Luiz Araújo Flamengo Actif 122 / 137 40% 1 17.12.2026 -
Mandla Kekana Ajax Cape Town Actif 115 / 104 40% 1 17.12.2026 -
Marko Janković Qarabag Actif 131 / 119 40% 1 17.12.2026 -
Ruslan Apekov Torpedo Moscow Actif 109 / 104 40% 1 14.12.2026 -
Nazmi Gripshi Rubin Actif 114 / 117 40% 1 14.12.2026 -
Khuliso Mudau Mamelodi Sundowns Actif 134 / 128 40% 1 12.12.2026 -
Yeangel Montero Naxxar Lions Actif 110 / 97 40% 1 12.12.2026 -
Oliver Arblaster Sheffield United Actif 135 / 123 40% 1 11.12.2026 -
Isaac Solet CSKA Sofia Actif 117 / 124 40% 1 11.12.2026 -
Harvey Vale Queens Park Rangers Actif 133 / 117 40% 1 08.12.2026 -
Petar Stanić Ludogorets Actif 137 / 136 40% 1 08.12.2026 -
Asanele Velebayi Kaizer Chiefs Actif 116 / 97 40% 1 07.12.2026 -
Thabo Nodada Maritzburg United Actif 107 / 100 40% 1 03.12.2026 -
Sandi Zajc NK Domzale Actif 101 / 113 40% 1 03.12.2026 -
Juan Bezerra Zamalek Actif 115 / 122 40% 1 03.12.2026 -
Marcelo Allende Mamelodi Sundowns Actif 125 / 121 40% 1 02.12.2026 -
Xeber Alkain Karpaty Actif 118 / 116 40% 1 02.12.2026 -
Hervin Ongenda Botosani Actif 116 / 118 40% 1 26.11.2026 -
Dragos Puscas Pandurii Actif 109 / 108 40% 1 26.11.2026 -
Álex Centelles Levski Actif 121 / 127 40% 1 24.11.2026 -
Mamadou Thiam FCSB Actif 117 / 119 40% 1 24.11.2026 -
Meriton Korenica CFR Cluj Actif 127 / 119 40% 2 22.11.2026 -
Ole-Didrik Blomberg Bodo/Glimt Actif 127 / 127 40% 1 22.11.2026 -
Mohammed Kamara CFR Cluj Actif 117 / 117 40% 3 21.11.2026 -
Juan Pablo Gallego Fehervar Actif 115 / 115 40% 1 21.11.2026 -
Matheus Silva Qarabag Actif 121 / 128 40% 1 20.11.2026 -
Dimitar Mitrovski Olimpija Ljubljana Actif 110 / 106 40% 1 20.11.2026 -
Allan Saint-Maximin Charlotte Football Club Actif 148 / 129 40% 1 18.11.2026 -
Ryan Gauld Vancouver Whitecaps Actif 141 / 146 40% 1 18.11.2026 -
Daniel Kyerewaa Reading Actif 101 / 113 40% 1 17.11.2026 -
Callum Robinson Poltava Actif 120 / 121 40% 1 16.11.2026 -
Mattéo Ahlinvi Viitorul Actif 109 / 94 40% 1 15.11.2026 -
Egas Cacintura Akhmat Grozny Actif 121 / 118 40% 1 15.11.2026 -
Franco Cristaldo Talleres Actif 138 / 126 40% 1 14.11.2026 -
Matthias Seidl Rapid Wien Actif 135 / 116 40% 1 12.11.2026 -
Anders Dreyer San Diego Football Club Actif 130 / 141 40% 1 12.11.2026 -
Paul Chiriches Pandurii Actif 109 / 109 40% 1 07.11.2026 -
Emil Breivik Molde Actif 118 / 116 40% 1 07.11.2026 -
Danilo Boza Dinamo Bucharest Actif 134 / 132 40% 2 06.11.2026 -
Goodman Mosele Chippa United Actif 96 / 108 40% 1 06.11.2026 -
Isaac Matondo Koper Actif 113 / 106 40% 1 05.11.2026 -
David Miculescu FCSB Actif 129 / 126 40% 1 05.11.2026 -
Teboho Mokoena Mamelodi Sundowns Actif 144 / 121 40% 1 04.11.2026 -
Arsen Adamov Akhmat Grozny Actif 113 / 122 40% 1 08.10.2026 -
Carlos Mora Universitatea Craiova Actif 130 / 121 40% 1 08.10.2026 Plus d'infos
Erik Botheim Viking Actif 114 / 122 40% 1 07.10.2026 -
Daniel Karlsbakk Sarpsborg 08 Actif 122 / 129 40% 1 07.10.2026 -
Lebogang Manyama SuperSport United Actif 103 / 111 40% 1 06.10.2026 -
Kamil Conteh Bristol Rovers Actif 92 / 115 40% 1 06.10.2026 -
Vladimir Screciu Viitorul Actif 122 / 116 40% 1 06.10.2026 -
Lautaro Lusnig Deportivo Tachira Actif 104 / 103 40% 1 08.09.2026 -
Raul Opruţ Dinamo Bucharest Actif 110 / 121 40% 1 08.09.2026 -
Lovro Cvek Voluntari Actif 101 / 98 69% 1 17.08.2026 Approuver
Cristian Mihai Dinamo Bucharest Actif 105 / 111 69% 1 03.08.2026 Approuver
Franco Pizzichillo Montevideo City Torque Actif 106 / 122 40% 1 01.08.2026 -
Lucas Rodríguez Albion Actif 105 / 116 40% 1 01.08.2026 -